Time;durP1;ratioP1;P1;durP2;ratioP2;P2;SDS_P1;SDS_P2;PMS_P1;PMS_P2;Temp;Humidity;BMP_temperature;BMP_pressure;BME280_temperature;BME280_humidity;BME280_pressure;Samples;Min_cycle;Max_cycle;Signal;HPM_P1;HPM_P2
2022/09/27 00:00:59;;;;;;;4.65;1.27;;;10.20;99.90;;;;;;4956219;28;20057;-65
2022/09/27 00:03:27;;;;;;;3.85;1.10;;;10.20;99.90;;;;;;4973148;28;20454;-65
2022/09/27 00:06:04;;;;;;;4.50;1.40;;;10.20;99.90;;;;;;4972969;28;20058;-65
2022/09/27 00:08:32;;;;;;;6.38;2.72;;;10.20;99.90;;;;;;4956252;28;20053;-65
2022/09/27 00:11:00;;;;;;;5.20;2.25;;;10.20;99.90;;;;;;4973430;28;20499;-64
2022/09/27 00:13:27;;;;;;;5.13;1.25;;;10.20;99.90;;;;;;4972956;28;20503;-65
2022/09/27 00:16:01;;;;;;;4.68;1.27;;;10.20;99.90;;;;;;4956341;28;20093;-66
2022/09/27 00:18:28;;;;;;;5.57;1.35;;;10.20;99.90;;;;;;4956899;28;20082;-66
2022/09/27 00:20:55;;;;;;;3.83;1.23;;;10.20;99.90;;;;;;4976647;28;20101;-67
2022/09/27 00:23:22;;;;;;;4.15;1.20;;;10.20;99.90;;;;;;4959914;28;20430;-66
2022/09/27 00:25:56;;;;;;;8.07;1.92;;;10.10;99.90;;;;;;4959236;28;20514;-66
2022/09/27 00:28:23;;;;;;;3.47;1.30;;;10.10;99.90;;;;;;4977122;28;20047;-67
2022/09/27 00:30:50;;;;;;;4.18;0.98;;;10.10;99.90;;;;;;4959701;28;20523;-66
2022/09/27 00:33:18;;;;;;;5.68;1.15;;;10.10;99.90;;;;;;4976648;28;20055;-66
2022/09/27 00:35:45;;;;;;;4.13;0.90;;;10.10;99.90;;;;;;4959661;28;20058;-66
2022/09/27 00:38:12;;;;;;;5.40;1.20;;;10.10;99.90;;;;;;4959227;28;20054;-65
2022/09/27 00:40:39;;;;;;;5.68;1.10;;;10.00;99.90;;;;;;4976353;28;20054;-66
2022/09/27 00:43:16;;;;;;;8.60;1.33;;;10.00;99.90;;;;;;4976989;28;20050;-66
2022/09/27 00:45:46;;;;;;;6.22;1.00;;;9.90;99.90;;;;;;4959248;28;20510;-66
2022/09/27 00:48:17;;;;;;;9.05;1.10;;;9.90;99.90;;;;;;4975106;28;20058;-66
2022/09/27 00:50:47;;;;;;;5.82;1.48;;;9.80;99.90;;;;;;4976632;28;20059;-65
2022/09/27 00:53:20;;;;;;;5.07;1.20;;;9.80;99.90;;;;;;4976282;28;20062;-65
2022/09/27 00:55:51;;;;;;;2.70;0.88;;;9.80;99.90;;;;;;4958757;28;20086;-66
2022/09/27 00:58:22;;;;;;;4.10;1.17;;;9.70;99.90;;;;;;4959232;28;20098;-66
2022/09/27 01:00:53;;;;;;;3.88;1.00;;;9.60;99.90;;;;;;4959320;28;20051;-66
2022/09/27 01:03:26;;;;;;;7.03;0.90;;;9.60;99.90;;;;;;4976447;28;20503;-67
2022/09/27 01:05:55;;;;;;;7.55;1.23;;;9.50;99.90;;;;;;4976153;28;20525;-66
2022/09/27 01:08:22;;;;;;;5.85;1.08;;;9.50;99.90;;;;;;4975019;28;20054;-66
2022/09/27 01:11:00;;;;;;;4.30;0.90;;;9.50;99.90;;;;;;4976468;28;20402;-67
2022/09/27 01:13:35;;;;;;;4.57;1.02;;;9.50;99.90;;;;;;4975875;28;20057;-66
2022/09/27 01:16:12;;;;;;;7.00;1.60;;;9.40;99.90;;;;;;4958246;28;20082;-67
2022/09/27 01:18:48;;;;;;;7.68;1.60;;;9.50;99.90;;;;;;4958433;28;20042;-66
2022/09/27 01:21:38;;;;;;;4.78;1.55;;;9.50;99.90;;;;;;4958491;28;20059;-66
2022/09/27 01:24:41;;;;;;;6.63;1.60;;;9.60;99.90;;;;;;4952095;28;20055;-66
2022/09/27 01:27:37;;;;;;;4.43;1.50;;;9.60;99.90;;;;;;4958505;28;20047;-66
2022/09/27 01:30:28;;;;;;;4.00;1.20;;;9.70;99.90;;;;;;4958143;28;20101;-66
2022/09/27 01:33:08;;;;;;;4.80;1.10;;;9.70;99.90;;;;;;4954954;28;20472;-67
2022/09/27 01:35:41;;;;;;;4.17;1.30;;;9.70;99.90;;;;;;4975716;28;20057;-66
2022/09/27 01:38:16;;;;;;;4.90;1.30;;;9.80;99.90;;;;;;4975066;28;20310;-65
2022/09/27 01:40:52;;;;;;;5.25;1.00;;;9.80;99.90;;;;;;4958652;28;20063;-66
2022/09/27 01:43:24;;;;;;;4.53;1.08;;;9.80;99.90;;;;;;4958138;28;20458;-66
2022/09/27 01:45:56;;;;;;;6.15;1.40;;;9.80;99.90;;;;;;4955181;29;20419;-66
2022/09/27 01:48:25;;;;;;;2.88;1.48;;;9.80;99.90;;;;;;4939231;29;20051;-64
2022/09/27 01:50:58;;;;;;;5.03;2.85;;;9.80;99.90;;;;;;4938524;29;20499;-64
2022/09/27 01:53:31;;;;;;;11.35;5.68;;;9.90;99.90;;;;;;4945067;28;20575;-65
2022/09/27 01:56:03;;;;;;;11.90;7.78;;;9.90;99.90;;;;;;4975364;28;20050;-65
2022/09/27 01:58:37;;;;;;;11.30;8.30;;;9.90;99.90;;;;;;4957224;28;20470;-64
2022/09/27 02:01:08;;;;;;;1.83;1.20;;;9.90;99.90;;;;;;4958197;28;20069;-64
2022/09/27 02:03:36;;;;;;;;;;;9.90;99.90;;;;;;4958305;28;20051;-65
2022/09/27 02:06:10;;;;;;;10.20;1.55;;;9.80;99.90;;;;;;4957735;28;19922;-65
2022/09/27 02:08:42;;;;;;;4.38;1.48;;;9.80;99.90;;;;;;4974727;28;20113;-66
2022/09/27 02:11:11;;;;;;;5.72;1.40;;;9.80;99.90;;;;;;4957723;28;20055;-66
2022/09/27 02:13:45;;;;;;;6.53;1.65;;;9.80;99.90;;;;;;4958011;28;20450;-65
2022/09/27 02:16:22;;;;;;;9.50;3.60;;;9.80;99.90;;;;;;4975197;28;20402;-65
2022/09/27 02:18:57;;;;;;;4.45;2.38;;;9.80;99.90;;;;;;4957285;28;20051;-66
2022/09/27 02:21:31;;;;;;;6.05;2.65;;;9.80;99.90;;;;;;4975023;28;20051;-65
2022/09/27 02:24:01;;;;;;;4.82;1.10;;;9.80;99.90;;;;;;4974878;28;20168;-65
2022/09/27 02:26:34;;;;;;;5.00;1.77;;;9.80;99.90;;;;;;4974633;28;20055;-66
2022/09/27 02:29:08;;;;;;;4.47;0.90;;;9.80;99.90;;;;;;4974868;28;20054;-66
2022/09/27 02:31:36;;;;;;;2.70;0.88;;;9.80;99.90;;;;;;4974574;28;20093;-66
2022/09/27 02:34:07;;;;;;;4.65;1.00;;;9.70;99.90;;;;;;4957158;28;20055;-66
2022/09/27 02:36:34;;;;;;;4.95;1.05;;;9.70;99.90;;;;;;4975090;28;20058;-66
2022/09/27 02:39:01;;;;;;;4.65;1.10;;;9.60;99.90;;;;;;4974336;28;20047;-67
2022/09/27 02:41:28;;;;;;;2.20;0.88;;;9.60;99.90;;;;;;4973671;28;20055;-66
2022/09/27 02:43:59;;;;;;;6.93;1.10;;;9.60;99.90;;;;;;4957411;28;20057;-66
2022/09/27 02:46:42;;;;;;;2.45;0.80;;;9.60;99.90;;;;;;4974119;28;20532;-66
2022/09/27 02:49:23;;;;;;;5.05;1.00;;;9.50;99.90;;;;;;4974718;28;20050;-67
2022/09/27 02:52:01;;;;;;;4.60;1.17;;;9.50;99.90;;;;;;4956941;28;20062;-65
2022/09/27 02:54:39;;;;;;;4.95;1.63;;;9.40;99.90;;;;;;4956420;28;20502;-67
2022/09/27 02:57:17;;;;;;;5.35;1.10;;;9.50;99.90;;;;;;4974542;28;20542;-66
2022/09/27 02:59:52;;;;;;;4.97;1.00;;;9.40;99.90;;;;;;4956942;28;20059;-66
2022/09/27 03:02:27;;;;;;;4.60;1.25;;;9.40;99.90;;;;;;4956741;28;20051;-65
2022/09/27 03:04:59;;;;;;;2.95;0.95;;;9.40;99.90;;;;;;4957006;28;20050;-65
2022/09/27 03:07:26;;;;;;;4.15;1.10;;;9.40;99.90;;;;;;4957522;28;20062;-66
2022/09/27 03:09:54;;;;;;;4.38;1.27;;;9.40;99.90;;;;;;4956204;28;20062;-65
2022/09/27 03:12:24;;;;;;;6.60;1.50;;;9.40;99.90;;;;;;4956704;28;20065;-65
2022/09/27 03:14:52;;;;;;;3.70;1.23;;;9.40;99.90;;;;;;4956627;28;20086;-67
2022/09/27 03:17:20;;;;;;;3.47;1.08;;;9.40;99.90;;;;;;4956983;28;20431;-66
2022/09/27 03:19:47;;;;;;;5.25;1.25;;;9.40;99.90;;;;;;4956604;28;20055;-66
2022/09/27 03:22:14;;;;;;;7.43;1.65;;;9.50;99.90;;;;;;4956201;28;20061;-66
2022/09/27 03:24:41;;;;;;;4.95;1.30;;;9.40;99.90;;;;;;4956557;28;20078;-66
2022/09/27 03:27:08;;;;;;;5.13;1.23;;;9.40;99.90;;;;;;4956827;28;20512;-66
2022/09/27 03:29:35;;;;;;;3.20;1.05;;;9.30;99.90;;;;;;4973552;28;20102;-66
2022/09/27 03:32:02;;;;;;;7.93;1.08;;;9.30;99.90;;;;;;4973970;28;20054;-65
2022/09/27 03:34:31;;;;;;;4.55;1.10;;;9.30;99.90;;;;;;4973691;28;20117;-65
2022/09/27 03:36:57;;;;;;;3.03;0.90;;;9.20;99.90;;;;;;4956362;28;20526;-66
2022/09/27 03:39:24;;;;;;;6.72;1.33;;;9.20;99.90;;;;;;4973908;28;20050;-66
2022/09/27 03:41:51;;;;;;;4.47;1.20;;;9.20;99.90;;;;;;4973735;28;20054;-65
2022/09/27 03:44:18;;;;;;;3.05;1.15;;;9.10;99.90;;;;;;4973373;28;20097;-65
2022/09/27 03:46:45;;;;;;;6.75;1.13;;;9.20;99.90;;;;;;4973771;28;20055;-66
2022/09/27 03:49:12;;;;;;;4.65;1.45;;;9.20;99.90;;;;;;4956334;28;20097;-65
2022/09/27 03:51:41;;;;;;;5.05;1.35;;;9.20;99.90;;;;;;4973337;28;20056;-65
2022/09/27 03:54:08;;;;;;;5.60;1.10;;;9.20;99.90;;;;;;4975404;28;20089;-65
2022/09/27 03:56:35;;;;;;;2.20;0.77;;;9.20;99.90;;;;;;4977654;28;20057;-65
2022/09/27 03:59:02;;;;;;;3.45;0.95;;;9.20;99.90;;;;;;4977204;28;20043;-65
2022/09/27 04:01:29;;;;;;;8.80;1.30;;;9.20;99.90;;;;;;4959909;28;20122;-65
2022/09/27 04:03:56;;;;;;;5.80;1.00;;;9.20;99.90;;;;;;4960105;28;20066;-64
2022/09/27 04:06:23;;;;;;;6.30;1.42;;;9.20;99.90;;;;;;4977614;28;20458;-66
2022/09/27 04:08:51;;;;;;;5.93;1.95;;;9.20;99.90;;;;;;4959716;28;20059;-66
2022/09/27 04:11:18;;;;;;;6.90;1.10;;;9.20;99.90;;;;;;4959483;28;20063;-66
2022/09/27 04:13:47;;;;;;;6.32;1.38;;;9.20;99.90;;;;;;4977455;28;20058;-66
2022/09/27 04:16:15;;;;;;;5.78;1.70;;;9.20;99.90;;;;;;4976929;28;20055;-66
2022/09/27 04:18:41;;;;;;;7.88;1.30;;;9.20;99.90;;;;;;4959194;28;20066;-66
2022/09/27 04:21:09;;;;;;;4.82;1.05;;;9.20;99.90;;;;;;4959727;28;20054;-66
2022/09/27 04:23:36;;;;;;;5.60;1.00;;;9.20;99.90;;;;;;4976913;28;20082;-65
2022/09/27 04:26:04;;;;;;;6.13;1.42;;;9.20;99.90;;;;;;4959390;28;20090;-66
2022/09/27 04:28:32;;;;;;;4.32;1.10;;;9.20;99.90;;;;;;4977289;28;20411;-65
2022/09/27 04:30:59;;;;;;;3.22;1.15;;;9.20;99.90;;;;;;4959414;28;20055;-67
2022/09/27 04:33:26;;;;;;;4.07;1.20;;;9.20;99.90;;;;;;4976545;28;20113;-65
2022/09/27 04:38:38;;;;;;;3.35;0.88;;;9.20;99.90;;;;;;4959493;28;20051;-65
2022/09/27 04:41:06;;;;;;;4.22;1.35;;;9.20;99.90;;;;;;4976085;28;20054;-65
2022/09/27 04:43:33;;;;;;;3.00;1.33;;;9.30;99.90;;;;;;4976912;28;20058;-65
2022/09/27 04:46:00;;;;;;;6.68;1.20;;;9.30;99.90;;;;;;4976397;28;20051;-66
2022/09/27 04:48:27;;;;;;;4.10;1.10;;;9.30;99.90;;;;;;4975499;28;20050;-65
2022/09/27 04:50:58;;;;;;;3.40;1.10;;;9.30;99.90;;;;;;4975184;28;20055;-65
2022/09/27 04:53:25;;;;;;;8.30;1.77;;;9.30;99.90;;;;;;4975211;28;20082;-65
2022/09/27 04:55:54;;;;;;;8.13;1.20;;;9.40;99.90;;;;;;4959035;28;20565;-65
2022/09/27 04:58:22;;;;;;;5.22;1.60;;;9.40;99.90;;;;;;4976532;28;20047;-65
2022/09/27 05:00:51;;;;;;;7.47;1.67;;;9.40;99.90;;;;;;4958832;28;20054;-65
2022/09/27 05:03:18;;;;;;;6.38;1.85;;;9.40;99.90;;;;;;4959273;28;20051;-66
2022/09/27 05:05:45;;;;;;;8.77;1.73;;;9.40;99.90;;;;;;4958551;28;20086;-67
2022/09/27 05:08:12;;;;;;;9.25;1.48;;;9.40;99.90;;;;;;4975743;28;20073;-67
2022/09/27 05:10:39;;;;;;;6.03;1.35;;;9.40;99.90;;;;;;4976422;28;20057;-65
2022/09/27 05:13:06;;;;;;;4.75;1.38;;;9.40;99.90;;;;;;4976133;28;20054;-66
2022/09/27 05:15:35;;;;;;;4.55;1.40;;;9.30;99.90;;;;;;4958518;28;20117;-66
2022/09/27 05:18:02;;;;;;;2.47;1.05;;;9.30;99.90;;;;;;4975851;28;20061;-66
2022/09/27 05:20:28;;;;;;;6.82;1.25;;;9.40;99.90;;;;;;4975786;28;20047;-66
2022/09/27 05:22:55;;;;;;;5.68;1.33;;;9.60;99.90;;;;;;4975330;28;20050;-67
2022/09/27 05:25:22;;;;;;;3.58;1.45;;;9.40;99.90;;;;;;4975922;28;20050;-66
2022/09/27 05:27:50;;;;;;;4.25;2.60;;;9.40;99.90;;;;;;4976110;28;20106;-66
2022/09/27 05:30:17;;;;;;;8.05;2.33;;;9.40;99.90;;;;;;4957985;28;20054;-65
2022/09/27 05:32:48;;;;;;;5.22;1.13;;;9.40;99.90;;;;;;4975658;28;20125;-65
2022/09/27 05:35:17;;;;;;;5.63;1.77;;;9.40;99.90;;;;;;4957948;28;20102;-65
2022/09/27 05:37:43;;;;;;;4.88;1.95;;;9.40;99.90;;;;;;4975460;28;20133;-66
2022/09/27 05:40:11;;;;;;;5.90;2.10;;;9.40;99.90;;;;;;4957765;28;20051;-66
2022/09/27 05:42:38;;;;;;;7.43;4.47;;;9.40;99.90;;;;;;4975384;28;20051;-64
2022/09/27 05:45:07;;;;;;;11.68;4.90;;;9.40;99.90;;;;;;4958695;28;20054;-65
2022/09/27 05:47:33;;;;;;;10.18;3.67;;;9.40;99.90;;;;;;4975339;28;20179;-64
2022/09/27 05:50:02;;;;;;;10.00;3.10;;;9.40;99.90;;;;;;4975213;28;20046;-64
2022/09/27 05:52:29;;;;;;;8.82;3.00;;;9.40;99.90;;;;;;4958285;28;20054;-65
2022/09/27 05:54:57;;;;;;;6.78;1.60;;;9.50;99.90;;;;;;4957875;28;20055;-65
2022/09/27 05:57:24;;;;;;;7.57;1.52;;;9.50;99.90;;;;;;4953289;28;20055;-64
2022/09/27 05:59:51;;;;;;;10.52;1.80;;;9.50;99.90;;;;;;4945321;28;20050;-64
2022/09/27 06:02:18;;;;;;;7.18;3.17;;;9.60;99.90;;;;;;4969411;28;20491;-64
2022/09/27 06:04:45;;;;;;;12.45;7.63;;;9.60;99.90;;;;;;4946113;28;20054;-64
2022/09/27 06:07:13;;;;;;;14.45;9.02;;;9.60;99.90;;;;;;4952255;28;20086;-64
2022/09/27 06:09:40;;;;;;;13.27;6.05;;;9.70;99.90;;;;;;4965509;28;20047;-65
2022/09/27 06:12:10;;;;;;;10.75;2.30;;;9.70;99.90;;;;;;4949322;28;20082;-64
2022/09/27 06:14:38;;;;;;;6.65;1.45;;;9.70;99.90;;;;;;4964328;28;20105;-64
2022/09/27 06:17:05;;;;;;;6.50;1.70;;;9.70;99.90;;;;;;4951736;28;20077;-63
2022/09/27 06:19:32;;;;;;;7.30;1.33;;;9.70;99.90;;;;;;4965291;28;20109;-65
2022/09/27 06:21:59;;;;;;;5.72;1.20;;;9.70;99.90;;;;;;4966158;28;20051;-65
2022/09/27 06:24:27;;;;;;;4.65;1.42;;;9.60;99.90;;;;;;4946702;28;20055;-65
2022/09/27 06:26:54;;;;;;;2.33;0.80;;;9.60;99.90;;;;;;4968126;28;20042;-66
2022/09/27 06:29:21;;;;;;;3.70;1.05;;;9.60;99.90;;;;;;4966178;28;20518;-66
2022/09/27 06:31:48;;;;;;;3.75;1.20;;;9.60;99.90;;;;;;4950582;28;20059;-65
2022/09/27 06:34:15;;;;;;;5.75;1.17;;;9.50;99.90;;;;;;4965382;28;20051;-66
2022/09/27 06:36:42;;;;;;;4.75;1.60;;;9.60;99.90;;;;;;4965762;28;20156;-65
2022/09/27 06:39:09;;;;;;;4.10;1.13;;;9.50;99.90;;;;;;4967776;28;20047;-65
2022/09/27 06:41:37;;;;;;;6.05;1.48;;;9.60;99.90;;;;;;4947867;28;20058;-65
2022/09/27 06:44:04;;;;;;;3.22;1.38;;;9.60;99.90;;;;;;4965990;28;20069;-65
2022/09/27 06:46:31;;;;;;;3.92;1.48;;;9.60;99.90;;;;;;4951781;28;20050;-65
2022/09/27 06:48:58;;;;;;;3.92;1.48;;;9.70;99.90;;;;;;4968729;28;20298;-66
2022/09/27 06:51:25;;;;;;;4.95;1.30;;;9.70;99.90;;;;;;4966627;28;20062;-66
2022/09/27 06:53:52;;;;;;;5.68;1.17;;;9.70;99.90;;;;;;4965814;28;20047;-65
2022/09/27 06:56:19;;;;;;;4.20;1.25;;;9.70;99.90;;;;;;4971210;28;20457;-65
2022/09/27 07:01:31;;;;;;;3.28;1.10;;;9.90;99.90;;;;;;4947552;28;20070;-65
2022/09/27 07:03:58;;;;;;;2.70;1.15;;;9.90;99.90;;;;;;4963809;28;20046;-65
2022/09/27 07:06:26;;;;;;;2.75;1.10;;;10.00;99.90;;;;;;4964940;28;20058;-66
2022/09/27 07:08:53;;;;;;;4.65;1.27;;;10.00;99.90;;;;;;4963675;28;20059;-66
2022/09/27 07:11:22;;;;;;;4.47;0.90;;;10.10;99.90;;;;;;4949117;28;20051;-64
2022/09/27 07:13:50;;;;;;;3.53;1.02;;;10.10;99.90;;;;;;4948722;28;20134;-65
2022/09/27 07:16:17;;;;;;;3.00;1.20;;;10.20;99.90;;;;;;4963923;28;20046;-64
2022/09/27 07:18:44;;;;;;;3.08;1.05;;;10.30;99.90;;;;;;4963571;28;20094;-64
2022/09/27 07:21:12;;;;;;;6.55;1.30;;;10.60;99.90;;;;;;4965073;28;20047;-65
2022/09/27 07:23:39;;;;;;;4.07;1.00;;;11.30;99.90;;;;;;4964741;28;20050;-65
2022/09/27 07:26:07;;;;;;;4.90;1.23;;;12.60;99.90;;;;;;4951525;28;20046;-66
2022/09/27 07:28:35;;;;;;;2.80;0.80;;;13.90;99.90;;;;;;4965664;28;20105;-66
2022/09/27 07:31:03;;;;;;;7.30;1.33;;;14.90;99.90;;;;;;4962451;28;20043;-65
2022/09/27 07:33:31;;;;;;;3.20;0.95;;;15.80;99.90;;;;;;4952230;28;20504;-66
2022/09/27 07:35:58;;;;;;;3.70;1.35;;;16.60;99.90;;;;;;4950354;28;20403;-65
2022/09/27 07:38:25;;;;;;;4.70;1.35;;;17.30;99.90;;;;;;4951115;28;20046;-65
2022/09/27 07:40:52;;;;;;;4.10;0.90;;;17.50;99.90;;;;;;4950819;28;20462;-67
2022/09/27 07:43:19;;;;;;;2.15;0.70;;;16.50;99.90;;;;;;4950014;28;20062;-67
2022/09/27 07:45:46;;;;;;;1.80;0.80;;;16.00;99.90;;;;;;4963965;28;20138;-66
2022/09/27 07:48:16;;;;;;;4.28;1.13;;;14.90;99.90;;;;;;4947782;28;20129;-65
2022/09/27 07:50:43;;;;;;;2.35;0.70;;;14.20;99.90;;;;;;4944864;28;20046;-65
2022/09/27 07:53:12;;;;;;;2.78;0.73;;;13.50;99.90;;;;;;4946929;28;20050;-67
2022/09/27 07:55:39;;;;;;;4.40;0.95;;;13.00;99.90;;;;;;4964381;28;20136;-66
2022/09/27 07:58:08;;;;;;;5.55;0.90;;;12.50;99.90;;;;;;4947645;28;20051;-67
2022/09/27 08:00:36;;;;;;;2.28;0.75;;;12.10;99.90;;;;;;4971245;28;20089;-66
2022/09/27 08:03:05;;;;;;;2.90;0.80;;;11.80;99.90;;;;;;4972294;28;20093;-66
2022/09/27 08:05:34;;;;;;;1.97;0.87;;;11.60;99.90;;;;;;4973670;28;20050;-66
2022/09/27 08:08:02;;;;;;;2.53;0.63;;;11.40;99.90;;;;;;4956058;28;20361;-66
2022/09/27 08:10:30;;;;;;;3.13;1.25;;;11.20;99.90;;;;;;4973115;28;20502;-66
2022/09/27 08:12:57;;;;;;;3.67;0.70;;;11.10;99.90;;;;;;4956737;28;20058;-66
2022/09/27 08:15:24;;;;;;;1.58;0.70;;;11.10;99.90;;;;;;4955871;28;20062;-66
2022/09/27 08:17:51;;;;;;;1.40;0.70;;;11.20;99.90;;;;;;4973019;28;20047;-66
2022/09/27 08:20:18;;;;;;;2.20;1.02;;;11.20;99.90;;;;;;4956062;28;20050;-66
2022/09/27 08:22:47;;;;;;;2.40;0.98;;;11.30;99.90;;;;;;4955699;28;20542;-66
2022/09/27 08:25:14;;;;;;;3.60;1.10;;;11.40;99.90;;;;;;4972975;28;20062;-66
2022/09/27 08:27:41;;;;;;;2.97;0.70;;;11.60;99.90;;;;;;4956454;28;20059;-66
2022/09/27 08:30:09;;;;;;;3.45;0.80;;;11.80;99.90;;;;;;4955923;28;20050;-65
2022/09/27 08:32:37;;;;;;;3.88;1.10;;;12.10;99.90;;;;;;4955458;28;20399;-67
2022/09/27 08:35:06;;;;;;;1.80;0.80;;;12.40;99.90;;;;;;4955910;28;20093;-66
2022/09/27 08:37:34;;;;;;;3.83;0.80;;;13.00;99.90;;;;;;4956407;28;20054;-66
2022/09/27 08:40:02;;;;;;;2.72;0.80;;;13.10;99.90;;;;;;4957123;28;20065;-66
2022/09/27 08:42:38;;;;;;;3.90;0.90;;;13.00;99.90;;;;;;4976748;28;20055;-66
2022/09/27 08:45:12;;;;;;;3.67;1.00;;;12.90;99.90;;;;;;4976962;28;20062;-65
2022/09/27 08:47:43;;;;;;;1.58;0.70;;;12.70;99.90;;;;;;4976944;28;20055;-64
2022/09/27 08:50:22;;;;;;;2.42;0.80;;;12.50;99.90;;;;;;4959508;28;20133;-66
2022/09/27 08:52:55;;;;;;;3.00;0.80;;;12.30;99.90;;;;;;4976092;28;20057;-66
2022/09/27 08:55:30;;;;;;;4.20;0.73;;;12.30;99.90;;;;;;4958617;28;20067;-66
2022/09/27 08:57:58;;;;;;;4.38;0.93;;;12.30;99.90;;;;;;4958785;28;20058;-64
2022/09/27 09:00:27;;;;;;;2.92;0.75;;;12.30;99.90;;;;;;4975674;28;20069;-65
2022/09/27 09:02:54;;;;;;;1.98;0.80;;;12.40;99.90;;;;;;4959252;28;20057;-65
2022/09/27 09:05:28;;;;;;;6.35;0.93;;;12.40;99.90;;;;;;4959324;28;20061;-66
2022/09/27 09:08:23;;;;;;;2.45;0.93;;;12.40;99.90;;;;;;4975435;28;20051;-66
2022/09/27 09:13:59;;;;;;;4.28;0.80;;;12.40;99.90;;;;;;4958779;28;20063;-66
2022/09/27 09:16:42;;;;;;;4.10;0.75;;;12.50;99.90;;;;;;4959595;28;20054;-67
2022/09/27 09:19:27;;;;;;;3.85;1.15;;;12.70;99.90;;;;;;4976243;28;20058;-67
2022/09/27 09:22:05;;;;;;;1.55;0.68;;;12.90;99.90;;;;;;4974855;28;20515;-66
2022/09/27 09:24:51;;;;;;;3.40;0.80;;;13.00;99.90;;;;;;4957536;28;20051;-66
2022/09/27 09:27:30;;;;;;;2.00;0.70;;;13.20;99.90;;;;;;4955322;28;20063;-66
2022/09/27 09:30:12;;;;;;;2.60;0.90;;;13.40;99.90;;;;;;4948372;28;20054;-66
2022/09/27 09:32:55;;;;;;;1.60;0.70;;;13.30;99.90;;;;;;4941733;28;20055;-66
2022/09/27 09:35:25;;;;;;;2.75;0.75;;;13.00;99.90;;;;;;4942012;29;20051;-67
2022/09/27 09:37:55;;;;;;;2.22;0.85;;;12.80;99.90;;;;;;4956093;28;20082;-66
2022/09/27 09:40:28;;;;;;;2.83;1.80;;;12.70;99.90;;;;;;4938146;28;20416;-67
2022/09/27 09:43:00;;;;;;;3.17;0.80;;;12.90;99.90;;;;;;4955450;28;20055;-66
2022/09/27 09:45:30;;;;;;;1.35;0.52;;;13.00;99.90;;;;;;4941342;28;20105;-66
2022/09/27 09:48:04;;;;;;;4.68;0.82;;;13.10;99.90;;;;;;4938496;29;20511;-67
2022/09/27 09:50:37;;;;;;;4.43;0.63;;;13.10;99.90;;;;;;4954410;28;20051;-66
2022/09/27 09:53:13;;;;;;;2.45;0.93;;;13.00;99.90;;;;;;4962731;28;20134;-66
2022/09/27 09:55:42;;;;;;;1.92;0.70;;;13.00;99.90;;;;;;4937759;29;20397;-66
2022/09/27 09:58:21;;;;;;;2.63;0.70;;;12.80;99.90;;;;;;4938422;28;20389;-66
2022/09/27 10:00:51;;;;;;;1.75;0.93;;;12.70;99.90;;;;;;4942842;28;20047;-65
2022/09/27 10:03:18;;;;;;;1.80;1.10;;;12.50;99.90;;;;;;4951707;29;20055;-67
2022/09/27 10:05:45;;;;;;;3.78;0.70;;;12.50;99.90;;;;;;4938188;28;20506;-66
2022/09/27 10:08:18;;;;;;;1.70;0.65;;;12.40;99.90;;;;;;4947621;28;20443;-66
2022/09/27 10:10:45;;;;;;;1.45;0.60;;;12.40;99.90;;;;;;4952464;28;20051;-66
2022/09/27 10:13:16;;;;;;;3.30;0.60;;;12.40;99.90;;;;;;4953589;29;20054;-65
2022/09/27 10:15:46;;;;;;;0.55;0.50;;;12.20;99.90;;;;;;4957197;28;20133;-64
2022/09/27 10:18:18;;;;;;;0.57;0.43;;;12.20;99.90;;;;;;4938154;28;20469;-66
2022/09/27 10:20:49;;;;;;;1.67;0.60;;;12.20;99.90;;;;;;4954451;28;20086;-66
2022/09/27 10:23:20;;;;;;;1.08;0.60;;;12.20;99.90;;;;;;4962708;28;20398;-67
2022/09/27 10:25:53;;;;;;;2.63;0.63;;;12.20;99.90;;;;;;4949595;28;20051;-66
2022/09/27 10:28:31;;;;;;;3.10;0.77;;;12.40;99.90;;;;;;4947840;28;20058;-67
2022/09/27 10:31:01;;;;;;;3.55;0.93;;;12.40;99.90;;;;;;4937131;29;20066;-67
2022/09/27 10:33:30;;;;;;;1.08;0.50;;;12.60;99.90;;;;;;4937397;28;20059;-67
2022/09/27 10:35:57;;;;;;;3.25;0.70;;;12.80;99.90;;;;;;4954248;28;20051;-65
2022/09/27 10:38:27;;;;;;;2.22;0.60;;;13.20;99.90;;;;;;4954655;28;20055;-66
2022/09/27 10:40:56;;;;;;;1.37;0.50;;;13.50;99.90;;;;;;4954328;28;20051;-66
2022/09/27 10:43:32;;;;;;;1.02;0.63;;;13.90;99.90;;;;;;4954609;28;20507;-67
2022/09/27 10:46:04;;;;;;;2.33;0.73;;;14.00;99.90;;;;;;4938680;28;20055;-66
2022/09/27 10:48:31;;;;;;;2.67;0.50;;;14.00;99.90;;;;;;4949404;28;20506;-65
2022/09/27 10:51:00;;;;;;;0.70;0.40;;;13.60;99.90;;;;;;4954097;28;20074;-66
2022/09/27 10:53:29;;;;;;;0.90;0.47;;;13.40;99.90;;;;;;4941134;29;20062;-66
2022/09/27 10:55:56;;;;;;;0.75;0.38;;;13.10;99.90;;;;;;4953590;28;20055;-67
2022/09/27 10:58:29;;;;;;;0.80;0.40;;;12.70;99.90;;;;;;4940154;28;20059;-67
2022/09/27 11:01:01;;;;;;;1.48;0.40;;;12.30;99.90;;;;;;4938663;28;20051;-66
2022/09/27 11:03:29;;;;;;;1.83;0.40;;;12.10;99.90;;;;;;4953303;28;20090;-66
2022/09/27 11:05:58;;;;;;;2.30;0.63;;;11.90;99.90;;;;;;4963242;28;20046;-65
2022/09/27 11:08:30;;;;;;;3.10;0.85;;;11.70;99.90;;;;;;4934107;29;20151;-66
2022/09/27 11:11:05;;;;;;;1.52;0.50;;;11.60;99.90;;;;;;4943492;29;20406;-66
2022/09/27 11:13:34;;;;;;;1.05;0.50;;;11.40;99.90;;;;;;4934796;29;20411;-66
2022/09/27 11:16:28;;;;;;;1.00;0.60;;;11.30;99.90;;;;;;4934679;28;20094;-65
2022/09/27 11:19:07;;;;;;;2.67;0.70;;;11.20;99.90;;;;;;4934990;28;20111;-65
2022/09/27 11:21:45;;;;;;;2.15;0.63;;;11.20;99.90;;;;;;4938548;28;20058;-65
2022/09/27 11:24:30;;;;;;;1.48;0.50;;;11.10;99.90;;;;;;4934292;29;20095;-67
2022/09/27 11:27:07;;;;;;;2.50;0.80;;;11.30;99.90;;;;;;4940726;28;20047;-66
2022/09/27 11:29:46;;;;;;;2.92;0.60;;;11.40;99.90;;;;;;4939272;29;20082;-66
2022/09/27 11:32:27;;;;;;;1.85;0.70;;;11.60;99.90;;;;;;4948254;28;20048;-66
2022/09/27 11:35:19;;;;;;;1.08;0.63;;;12.00;99.90;;;;;;4936657;29;20054;-67
2022/09/27 11:37:58;;;;;;;3.92;0.80;;;13.00;99.90;;;;;;4933760;29;20056;-67
2022/09/27 11:40:31;;;;;;;1.40;0.57;;;14.70;99.90;;;;;;4935480;29;20099;-66
2022/09/27 11:43:18;;;;;;;2.60;0.60;;;15.70;99.90;;;;;;4932543;29;20055;-66
2022/09/27 11:45:54;;;;;;;2.47;0.80;;;16.80;99.90;;;;;;4938361;28;20063;-67
2022/09/27 11:48:40;;;;;;;3.03;0.90;;;17.80;99.90;;;;;;4933652;29;20119;-66
2022/09/27 11:51:33;;;;;;;2.08;0.60;;;18.80;99.90;;;;;;4934443;29;20056;-67
2022/09/27 11:54:14;;;;;;;1.50;0.57;;;18.60;99.90;;;;;;4933059;29;20043;-67
2022/09/27 11:56:50;;;;;;;2.33;1.00;;;18.20;99.90;;;;;;4940022;29;20048;-67
2022/09/27 11:59:39;;;;;;;3.45;3.15;;;17.60;99.90;;;;;;4933131;29;20064;-67
2022/09/27 12:02:20;;;;;;;4.80;3.92;;;16.90;99.90;;;;;;4923814;28;20059;-67
2022/09/27 12:05:06;;;;;;;2.67;1.70;;;16.30;99.90;;;;;;4935554;28;20070;-67
2022/09/27 12:07:42;;;;;;;4.03;2.50;;;15.70;99.90;;;;;;4932569;29;20055;-67
2022/09/27 12:10:13;;;;;;;2.45;1.52;;;15.30;99.90;;;;;;4936635;28;20130;-66
2022/09/27 12:12:44;;;;;;;1.85;0.90;;;15.10;99.90;;;;;;4933616;29;20476;-65
2022/09/27 12:15:17;;;;;;;2.00;0.60;;;14.90;99.90;;;;;;4949246;29;20115;-67
2022/09/27 12:17:48;;;;;;;1.30;0.52;;;14.70;99.90;;;;;;4935284;29;20056;-67
2022/09/27 12:20:21;;;;;;;19.52;1.88;;;14.60;99.90;;;;;;4937702;29;20052;-66
2022/09/27 12:22:55;;;;;;;2.42;0.60;;;14.80;99.90;;;;;;4950235;29;20051;-66
2022/09/27 12:25:26;;;;;;;2.42;0.93;;;14.80;99.90;;;;;;4939437;29;20457;-67
2022/09/27 12:27:54;;;;;;;;;;;14.70;99.90;;;;;;4944950;29;20044;-67
2022/09/27 12:30:21;;;;;;;3.55;0.98;;;14.70;99.90;;;;;;4939820;29;19922;-66
2022/09/27 12:32:57;;;;;;;2.97;0.90;;;14.70;99.90;;;;;;4951951;29;20071;-67
2022/09/27 12:35:29;;;;;;;3.78;1.38;;;14.80;99.90;;;;;;4937809;29;20052;-66
2022/09/27 12:38:02;;;;;;;2.60;1.10;;;15.00;99.90;;;;;;4941148;29;20164;-66
2022/09/27 12:40:32;;;;;;;2.60;1.13;;;15.00;99.90;;;;;;4943503;28;20064;-66
2022/09/27 12:43:04;;;;;;;11.50;1.33;;;14.80;99.90;;;;;;4941380;29;20044;-67
2022/09/27 12:45:42;;;;;;;4.65;1.10;;;14.90;99.90;;;;;;4937036;29;20051;-65
2022/09/27 12:48:13;;;;;;;7.85;2.83;;;14.70;99.90;;;;;;4945251;29;20508;-66
2022/09/27 12:50:45;;;;;;;4.53;1.92;;;14.70;99.90;;;;;;4950162;28;20054;-66
2022/09/27 12:53:21;;;;;;;6.43;0.93;;;14.50;99.90;;;;;;4934862;29;20519;-65
2022/09/27 12:56:13;;;;;;;2.30;0.70;;;14.40;99.90;;;;;;4949167;29;20645;-65
2022/09/27 12:59:18;;;;;;;2.30;0.60;;;14.20;99.90;;;;;;4949293;29;20055;-67
2022/09/27 13:02:25;;;;;;;1.20;0.50;;;14.20;99.90;;;;;;4934928;28;20058;-66
2022/09/27 13:05:11;;;;;;;2.42;0.73;;;14.30;99.90;;;;;;4945125;28;20075;-66
2022/09/27 13:07:58;;;;;;;1.40;0.60;;;14.20;99.90;;;;;;4934920;29;20063;-67
2022/09/27 13:10:51;;;;;;;2.60;0.70;;;14.30;99.90;;;;;;4936713;29;20118;-67
2022/09/27 13:13:21;;;;;;;2.22;0.65;;;14.70;99.90;;;;;;4941372;29;20135;-67
2022/09/27 13:15:49;;;;;;;2.80;1.90;;;15.10;99.90;;;;;;4938541;28;20118;-67
2022/09/27 13:18:31;;;;;;;2.15;0.70;;;15.30;99.90;;;;;;4939202;29;20115;-66
2022/09/27 13:20:58;;;;;;;1.73;0.60;;;15.80;99.90;;;;;;4935673;29;20106;-67
2022/09/27 13:24:00;;;;;;;2.95;0.60;;;16.70;99.90;;;;;;4935718;29;20067;-68